Time;durP1;ratioP1;P1;durP2;ratioP2;P2;SDS_P1;SDS_P2;PMS_P1;PMS_P2;Temp;Humidity;BMP_temperature;BMP_pressure;BME280_temperature;BME280_humidity;BME280_pressure;Samples;Min_cycle;Max_cycle;Signal;HPM_P1;HPM_P2
2022/08/30 00:01:01;;;;;;;39.70;25.42;;;;;;;29.39;79.21;98285.59;4890051;29;20604;-65
2022/08/30 00:02:17;;;;;;;36.78;26.33;;;;;;;29.42;79.32;98281.31;4892572;29;20425;-64
2022/08/30 00:05:07;;;;;;;36.50;26.27;;;;;;;29.36;79.35;98283.53;4893855;29;20064;-64
2022/08/30 00:07:50;;;;;;;;;;;;;;;29.45;79.44;98289.72;4897350;29;20138;-63
2022/08/30 00:10:39;;;;;;;41.70;29.05;;;;;;;29.34;79.76;98296.88;4911814;29;19923;-64
2022/08/30 00:13:23;;;;;;;41.22;30.80;;;;;;;29.38;79.58;98306.09;4911683;29;20052;-64
2022/08/30 00:16:12;;;;;;;41.17;31.63;;;;;;;29.39;79.21;98310.47;4911755;29;20059;-64
2022/08/30 00:19:07;;;;;;;49.42;32.13;;;;;;;29.36;79.82;98322.22;4897239;29;20124;-64
2022/08/30 00:21:42;;;;;;;47.47;34.97;;;;;;;29.39;80.05;98320.75;4892797;29;20055;-65
2022/08/30 00:24:31;;;;;;;48.45;34.95;;;;;;;29.34;80.11;98315.44;4892795;29;20143;-65
2022/08/30 00:27:13;;;;;;;48.35;34.17;;;;;;;29.36;80.04;98315.91;4892136;29;20144;-64
2022/08/30 00:30:03;;;;;;;43.03;33.67;;;;;;;29.38;80.34;98310.81;4893300;29;20749;-64
2022/08/30 00:32:53;;;;;;;42.20;32.58;;;;;;;29.39;80.20;98315.22;4891795;29;20055;-64
2022/08/30 00:35:35;;;;;;;44.30;32.35;;;;;;;29.39;80.38;98316.00;4892969;29;20143;-65
2022/08/30 00:38:24;;;;;;;43.35;32.78;;;;;;;29.38;80.33;98328.19;4892568;29;20133;-64
2022/08/30 00:41:12;;;;;;;44.80;32.30;;;;;;;29.38;80.44;98330.97;4895838;28;20759;-64
2022/08/30 00:44:01;;;;;;;48.35;34.88;;;;;;;29.35;80.52;98328.91;4892284;29;20045;-64
2022/08/30 00:46:43;;;;;;;45.85;32.65;;;;;;;29.32;80.25;98326.84;4892361;29;20125;-64
2022/08/30 00:49:34;;;;;;;44.25;32.90;;;;;;;29.41;80.18;98341.34;4910758;29;20119;-65
2022/08/30 00:52:16;;;;;;;40.67;31.80;;;;;;;29.41;80.21;98333.03;4911258;29;20048;-64
2022/08/30 00:55:13;;;;;;;45.42;31.27;;;;;;;29.41;80.28;98335.81;4911239;29;20052;-64
2022/08/30 00:57:54;;;;;;;44.92;32.92;;;;;;;29.30;80.87;98342.97;4898621;29;20040;-64
2022/08/30 01:00:52;;;;;;;46.45;33.65;;;;;;;29.31;81.53;98343.75;4893051;29;20070;-64
2022/08/30 01:03:29;;;;;;;48.10;34.40;;;;;;;29.31;81.48;98341.78;4877016;29;20284;-65
2022/08/30 01:06:26;;;;;;;55.00;39.08;;;;;;;29.39;80.95;98340.88;4875808;29;20516;-65
2022/08/30 01:09:15;;;;;;;50.22;35.80;;;;;;;29.42;80.75;98347.66;4889391;29;20071;-65
2022/08/30 01:12:04;;;;;;;47.75;34.78;;;;;;;29.46;81.09;98354.94;4892150;29;20448;-65
2022/08/30 01:14:46;;;;;;;44.10;34.75;;;;;;;29.53;80.97;98359.06;4891794;29;20108;-64
2022/08/30 01:17:35;;;;;;;46.72;31.95;;;;;;;29.54;80.52;98355.94;4877616;29;20112;-65
2022/08/30 01:20:40;;;;;;;44.90;31.05;;;;;;;29.59;80.51;98368.72;4875105;29;20048;-65
2022/08/30 01:23:20;;;;;;;43.92;30.88;;;;;;;29.63;80.92;98377.91;4891377;29;20135;-65
2022/08/30 01:26:10;;;;;;;48.50;32.97;;;;;;;29.44;81.25;98375.75;4877777;29;20049;-66
2022/08/30 01:29:00;;;;;;;44.38;31.95;;;;;;;29.57;80.29;98382.88;4892005;29;20048;-65
2022/08/30 01:31:56;;;;;;;46.08;32.55;;;;;;;29.68;80.15;98386.00;4894695;29;20056;-65
2022/08/30 01:34:31;;;;;;;50.95;33.13;;;;;;;29.74;79.50;98384.63;4910326;29;20388;-67
2022/08/30 01:37:27;;;;;;;50.33;33.28;;;;;;;29.83;79.74;98381.72;4910663;29;20425;-65
2022/08/30 01:40:10;;;;;;;45.20;33.88;;;;;;;29.89;79.37;98390.59;4910248;29;20135;-65
2022/08/30 01:43:05;;;;;;;47.85;32.35;;;;;;;30.00;79.22;98394.44;4911960;28;20547;-65
2022/08/30 01:45:42;;;;;;;47.92;33.40;;;;;;;30.19;78.22;98396.56;4908544;29;20056;-66
2022/08/30 01:48:31;;;;;;;53.20;34.05;;;;;;;30.36;77.31;98398.25;4871882;29;20797;-65
2022/08/30 01:51:21;;;;;;;46.83;33.03;;;;;;;30.51;77.16;98399.44;4873491;29;20069;-65
2022/08/30 01:54:17;;;;;;;46.50;33.13;;;;;;;30.26;76.95;98403.09;4874241;29;20056;-66
2022/08/30 01:56:52;;;;;;;48.30;32.17;;;;;;;30.23;77.68;98400.25;4879044;29;20200;-64
2022/08/30 01:59:46;;;;;;;43.47;31.88;;;;;;;30.60;76.96;98405.63;4891523;29;20108;-66
2022/08/30 02:02:45;;;;;;;50.20;32.70;;;;;;;30.69;76.31;98414.59;4891772;29;20170;-65
2022/08/30 02:05:27;;;;;;;45.85;31.58;;;;;;;30.70;76.52;98407.88;4859184;29;20052;-65
2022/08/30 02:08:16;;;;;;;44.58;32.97;;;;;;;30.50;77.33;98403.41;4890725;29;20120;-66
2022/08/30 02:10:59;;;;;;;51.40;32.53;;;;;;;30.38;76.45;98407.84;4907379;29;20084;-66
2022/08/30 02:13:49;;;;;;;47.55;33.00;;;;;;;30.92;75.14;98412.06;4909922;29;20044;-66
2022/08/30 02:16:32;;;;;;;;;;;;;;;30.72;74.86;98413.88;4910233;29;20720;-66
2022/08/30 02:19:21;;;;;;;41.22;26.55;;;;;;;31.21;74.28;98412.75;4909494;29;20036;-66
2022/08/30 02:22:04;;;;;;;38.38;28.15;;;;;;;31.47;74.50;98422.50;4886133;29;20607;-66
2022/08/30 02:24:53;;;;;;;34.38;25.92;;;;;;;31.61;72.98;98425.63;4890184;29;20115;-63
2022/08/30 02:27:42;;;;;;;38.63;26.88;;;;;;;31.72;72.95;98432.22;4871559;29;20048;-66
2022/08/30 02:30:31;;;;;;;34.95;25.55;;;;;;;31.76;72.83;98422.00;4871821;29;20517;-66
2022/08/30 02:33:14;;;;;;;43.42;27.02;;;;;;;31.56;72.51;98434.22;4857630;29;20452;-65
2022/08/30 02:36:03;;;;;;;35.30;24.77;;;;;;;31.58;71.78;98429.09;4872119;29;20355;-66
2022/08/30 02:38:45;;;;;;;40.05;23.52;;;;;;;31.42;72.00;98435.44;4871763;29;20055;-65
2022/08/30 02:41:34;;;;;;;27.02;19.67;;;;;;;31.52;71.20;98434.13;4874888;28;20122;-66
2022/08/30 02:44:29;;;;;;;30.17;20.98;;;;;;;31.81;71.32;98434.78;4889719;29;20227;-66
2022/08/30 02:47:18;;;;;;;34.05;25.60;;;;;;;31.56;71.79;98434.22;4871380;29;20225;-66
2022/08/30 02:50:10;;;;;;;38.63;26.92;;;;;;;31.62;73.09;98435.53;4871669;29;20149;-69
2022/08/30 02:52:52;;;;;;;37.53;26.73;;;;;;;31.65;72.79;98437.59;4871019;29;20049;-64
2022/08/30 02:55:41;;;;;;;47.05;28.67;;;;;;;31.27;72.82;98438.25;4871747;29;20055;-65
2022/08/30 02:58:30;;;;;;;41.60;28.38;;;;;;;31.86;72.23;98442.03;4890093;29;20119;-64
2022/08/30 03:01:20;;;;;;;46.47;27.85;;;;;;;31.85;71.72;98457.84;4894104;29;20144;-64
2022/08/30 03:04:07;;;;;;;42.50;28.73;;;;;;;32.02;72.64;98456.66;4890767;29;20071;-64
2022/08/30 03:06:56;;;;;;;41.47;28.58;;;;;;;31.92;71.30;98448.88;4889966;29;20548;-64
2022/08/30 03:09:51;;;;;;;38.80;29.30;;;;;;;31.86;72.93;98461.44;4875461;29;20823;-64
2022/08/30 03:12:27;;;;;;;42.63;27.92;;;;;;;31.94;70.99;98454.88;4890228;29;20144;-65
2022/08/30 03:15:16;;;;;;;40.97;29.83;;;;;;;31.96;72.66;98447.78;4889786;29;20128;-64
2022/08/30 03:18:05;;;;;;;46.15;30.40;;;;;;;32.00;70.91;98453.41;4889929;29;20410;-64
2022/08/30 03:20:47;;;;;;;45.15;28.98;;;;;;;32.21;71.39;98457.84;4874739;29;20552;-65
2022/08/30 03:23:36;;;;;;;45.08;27.55;;;;;;;32.32;71.06;98459.69;4871694;29;20130;-64
2022/08/30 03:26:18;;;;;;;42.70;27.73;;;;;;;32.56;70.71;98457.75;4856153;29;20064;-65
2022/08/30 03:29:07;;;;;;;42.13;30.65;;;;;;;32.69;70.47;98453.69;4881873;29;20063;-65
2022/08/30 03:31:52;;;;;;;47.47;31.60;;;;;;;32.33;69.75;98450.19;4903154;29;20577;-66
2022/08/30 03:34:41;;;;;;;51.13;31.60;;;;;;;32.63;70.31;98457.16;4887547;29;20048;-65
2022/08/30 03:37:24;;;;;;;49.83;29.27;;;;;;;32.70;69.51;98457.28;4871245;29;20135;-66
2022/08/30 03:40:15;;;;;;;51.33;32.05;;;;;;;32.78;69.47;98456.25;4910809;29;20040;-65
2022/08/30 03:43:04;;;;;;;53.92;33.25;;;;;;;32.85;69.56;98453.59;4897361;28;20067;-65
2022/08/30 03:45:59;;;;;;;63.75;38.80;;;;;;;33.00;69.21;98459.41;4912123;29;20044;-65
2022/08/30 03:48:36;;;;;;;58.95;36.85;;;;;;;32.61;68.02;98462.25;4912334;29;20103;-66
2022/08/30 03:51:31;;;;;;;55.17;35.25;;;;;;;32.96;69.13;98468.50;4911800;29;20445;-64
2022/08/30 03:54:08;;;;;;;61.20;37.22;;;;;;;33.04;68.76;98463.88;4912564;29;20043;-65
2022/08/30 03:56:57;;;;;;;57.28;36.60;;;;;;;32.54;68.95;98463.72;4895116;29;20437;-64
2022/08/30 03:59:39;;;;;;;55.60;36.83;;;;;;;32.96;69.52;98476.84;4876905;29;20067;-66
2022/08/30 04:02:34;;;;;;;64.63;39.65;;;;;;;32.71;68.02;98475.56;4893125;29;20052;-65
2022/08/30 04:05:10;;;;;;;56.85;40.95;;;;;;;32.99;67.79;98474.50;4904093;29;20056;-64
2022/08/30 04:07:59;;;;;;;65.97;44.45;;;;;;;33.23;66.82;98474.16;4910800;29;20708;-65
2022/08/30 04:10:48;;;;;;;58.47;40.38;;;;;;;32.80;66.67;98483.66;4893418;29;20053;-65
2022/08/30 04:13:37;;;;;;;58.15;38.83;;;;;;;33.11;66.85;98493.78;4893824;29;20705;-64
2022/08/30 04:16:26;;;;;;;46.22;31.00;;;;;;;33.06;67.42;98491.31;4893124;29;20422;-65
2022/08/30 04:19:08;;;;;;;50.88;28.13;;;;;;;33.28;64.44;98493.28;4893445;29;20052;-66
2022/08/30 04:21:57;;;;;;;52.88;29.35;;;;;;;33.21;64.32;98498.75;4878286;29;20139;-64
2022/08/30 04:24:40;;;;;;;45.47;30.08;;;;;;;33.34;65.88;98502.13;4893513;29;20052;-66
2022/08/30 04:27:29;;;;;;;51.50;31.48;;;;;;;33.46;62.69;98506.69;4893278;29;20120;-65
2022/08/30 04:30:12;;;;;;;49.80;32.88;;;;;;;33.88;61.37;98508.56;4892928;29;20385;-66
2022/08/30 04:33:01;;;;;;;54.88;34.60;;;;;;;33.97;62.51;98500.75;4892708;29;20456;-65
2022/08/30 04:35:47;;;;;;;63.80;41.20;;;;;;;34.46;61.85;98510.19;4876697;29;20049;-65
2022/08/30 04:38:38;;;;;;;68.50;46.00;;;;;;;34.41;62.26;98516.09;4894189;29;20044;-65
2022/08/30 04:41:23;;;;;;;85.30;50.90;;;;;;;34.50;61.79;98517.41;4893809;29;20104;-67
2022/08/30 04:44:18;;;;;;;79.18;49.60;;;;;;;34.51;61.69;98519.03;4896719;28;20474;-67
2022/08/30 04:47:13;;;;;;;69.68;45.55;;;;;;;34.86;60.51;98509.50;4893869;28;20073;-65
2022/08/30 04:50:03;;;;;;;53.72;34.83;;;;;;;35.49;58.13;98515.31;4893304;29;20056;-65
2022/08/30 04:52:53;;;;;;;44.85;28.50;;;;;;;35.85;56.27;98508.03;4894986;29;20172;-66
2022/08/30 04:55:35;;;;;;;47.72;27.55;;;;;;;36.03;57.24;98515.72;4891501;29;20070;-65
2022/08/30 04:58:24;;;;;;;45.65;26.05;;;;;;;35.90;56.50;98518.03;4881585;29;20052;-65
2022/08/30 05:01:30;;;;;;;60.50;35.55;;;;;;;35.55;58.21;98510.97;4892037;29;20048;-66
2022/08/30 05:04:26;;;;;;;54.38;36.83;;;;;;;36.27;56.96;98508.72;4873262;29;20144;-66
2022/08/30 05:07:08;;;;;;;59.60;39.55;;;;;;;36.27;59.35;98500.31;4873210;29;20394;-66
2022/08/30 05:09:57;;;;;;;65.47;41.63;;;;;;;36.23;61.06;98503.09;4895045;29;20501;-65
2022/08/30 05:12:39;;;;;;;72.97;44.83;;;;;;;35.98;57.47;98502.94;4892253;29;20052;-66
2022/08/30 05:15:28;;;;;;;68.28;43.38;;;;;;;36.57;59.12;98504.81;4892205;29;20056;-65
2022/08/30 05:18:11;;;;;;;64.88;43.13;;;;;;;36.57;58.82;98502.03;4892278;29;20064;-65
2022/08/30 05:21:15;;;;;;;83.72;53.15;;;;;;;36.40;59.57;98500.75;4875436;29;20421;-65
2022/08/30 05:24:01;;;;;;;94.60;62.30;;;;;;;35.49;58.96;98504.16;4883921;29;20155;-65
2022/08/30 05:26:50;;;;;;;89.43;59.97;;;;;;;35.84;59.21;98502.84;4891986;29;20101;-67
2022/08/30 05:29:32;;;;;;;91.80;56.80;;;;;;;36.37;58.06;98502.34;4886868;29;20123;-67
2022/08/30 05:32:21;;;;;;;91.05;56.83;;;;;;;35.76;57.73;98504.78;4890527;29;20092;-67
2022/08/30 05:35:05;;;;;;;90.75;54.00;;;;;;;35.97;57.13;98501.31;4908099;29;20181;-67
2022/08/30 05:37:54;;;;;;;83.60;51.45;;;;;;;35.95;57.03;98498.13;4888081;29;20789;-65
2022/08/30 05:40:40;;;;;;;77.65;50.20;;;;;;;35.83;58.28;98498.44;4891877;29;20131;-68
2022/08/30 05:43:31;;;;;;;74.43;49.05;;;;;;;35.80;57.47;98494.44;4889739;29;20048;-68
2022/08/30 05:46:21;;;;;;;74.80;47.53;;;;;;;35.66;57.68;98489.53;4898797;29;20540;-68
2022/08/30 05:49:16;;;;;;;64.75;39.53;;;;;;;35.64;57.42;98491.91;4909901;29;20051;-68
2022/08/30 05:52:14;;;;;;;51.15;34.60;;;;;;;35.31;56.21;98490.03;4909761;29;20675;-68
2022/08/30 05:54:57;;;;;;;52.22;30.88;;;;;;;35.21;56.07;98487.97;4909458;29;20048;-68
2022/08/30 05:57:53;;;;;;;45.92;30.33;;;;;;;35.22;56.91;98479.22;4908309;29;20052;-68
2022/08/30 06:00:29;;;;;;;50.47;31.50;;;;;;;35.22;56.01;98484.00;4909075;29;20050;-68
2022/08/30 06:03:24;;;;;;;;;;;;;;;35.51;58.62;98482.22;4892577;29;20156;-68
2022/08/30 06:06:02;;;;;;;44.42;29.85;;;;;;;35.51;59.26;98487.81;4886611;29;19935;-68
2022/08/30 06:08:57;;;;;;;50.13;31.17;;;;;;;35.26;58.37;98468.09;4892427;29;20548;-70
2022/08/30 06:11:33;;;;;;;60.85;35.08;;;;;;;35.77;57.98;98469.28;4891034;29;20059;-69
2022/08/30 06:14:29;;;;;;;61.72;37.35;;;;;;;35.89;56.73;98471.75;4891051;29;20633;-69
2022/08/30 06:17:05;;;;;;;65.18;38.65;;;;;;;36.14;56.44;98465.50;4890609;29;20052;-68
2022/08/30 06:19:54;;;;;;;65.78;38.65;;;;;;;36.36;55.08;98461.63;4890931;29;20056;-68
2022/08/30 06:22:43;;;;;;;61.08;39.83;;;;;;;36.13;56.54;98458.31;4891141;29;20048;-69
2022/08/30 06:25:42;;;;;;;59.90;38.47;;;;;;;36.30;56.50;98457.59;4891356;29;20044;-68
2022/08/30 06:28:17;;;;;;;62.33;37.88;;;;;;;36.63;55.55;98453.75;4891401;29;20740;-69
2022/08/30 06:31:14;;;;;;;57.75;36.13;;;;;;;36.79;58.23;98459.00;4890646;29;20050;-68
2022/08/30 06:33:50;;;;;;;50.97;33.13;;;;;;;36.74;56.68;98453.78;4891298;29;20048;-68
2022/08/30 06:36:39;;;;;;;57.03;32.20;;;;;;;36.76;55.40;98448.59;4891290;29;20048;-68
2022/08/30 06:39:21;;;;;;;53.42;32.33;;;;;;;36.24;56.79;98448.81;4889716;29;20068;-68
2022/08/30 06:42:10;;;;;;;57.13;33.15;;;;;;;36.02;59.35;98445.09;4891411;29;20052;-68
2022/08/30 06:45:01;;;;;;;53.67;33.78;;;;;;;36.03;58.18;98446.69;4874695;29;20045;-68
2022/08/30 06:47:51;;;;;;;55.53;33.78;;;;;;;36.13;60.16;98441.53;4889848;29;20049;-68
2022/08/30 06:50:46;;;;;;;59.17;37.65;;;;;;;36.12;57.31;98439.97;4889964;29;20060;-68
2022/08/30 06:53:22;;;;;;;63.97;37.85;;;;;;;35.32;56.93;98455.38;4891409;29;20088;-67
2022/08/30 06:56:11;;;;;;;;;;;;;;;35.49;59.22;98443.53;4891224;29;20048;-67
2022/08/30 06:59:01;;;;;;;63.85;38.55;;;;;;;35.24;60.33;98448.16;4908126;29;20308;-67
2022/08/30 07:01:43;;;;;;;64.45;40.10;;;;;;;34.92;58.17;98436.66;4902041;29;20057;-68
2022/08/30 07:04:32;;;;;;;66.45;42.63;;;;;;;35.29;58.75;98445.81;4890857;29;20139;-68
2022/08/30 07:07:14;;;;;;;79.25;45.53;;;;;;;34.86;59.10;98434.22;4890606;29;20067;-67
2022/08/30 07:10:03;;;;;;;91.40;49.50;;;;;;;34.89;56.91;98425.09;4890285;29;20180;-66
2022/08/30 07:12:45;;;;;;;75.78;47.95;;;;;;;35.18;56.98;98418.97;4896240;29;20894;-67
2022/08/30 07:15:34;;;;;;;83.65;50.33;;;;;;;34.74;58.60;98417.78;4890999;29;20052;-68
2022/08/30 07:21:37;;;;;;;77.65;48.83;;;;;;;35.22;61.96;98414.25;4893541;29;20049;-67
2022/08/30 07:24:26;;;;;;;86.00;51.40;;;;;;;35.32;65.23;98416.31;4873383;29;20152;-68
2022/08/30 07:27:08;;;;;;;62.53;37.55;;;;;;;35.46;60.83;98412.81;4871756;29;20048;-68
2022/08/30 07:30:03;;;;;;;48.47;27.42;;;;;;;35.53;60.69;98404.50;4871794;29;20064;-67
2022/08/30 07:32:39;;;;;;;56.88;33.53;;;;;;;35.59;55.83;98400.16;4871564;29;20075;-67
2022/08/30 07:35:28;;;;;;;62.72;32.70;;;;;;;35.70;57.26;98393.88;4877491;29;20103;-68
2022/08/30 07:38:10;;;;;;;57.25;31.55;;;;;;;35.91;59.41;98396.75;4889426;29;20135;-68
2022/08/30 07:41:00;;;;;;;52.08;29.40;;;;;;;35.49;57.89;98392.53;4889416;29;20365;-67
2022/08/30 07:43:42;;;;;;;45.05;31.25;;;;;;;35.84;59.47;98396.72;4889668;29;20067;-67
2022/08/30 07:46:31;;;;;;;46.45;26.88;;;;;;;35.66;58.31;98385.44;4889923;29;20203;-67
2022/08/30 07:49:19;;;;;;;42.58;26.45;;;;;;;35.83;58.75;98389.56;4871596;29;20364;-67
2022/08/30 07:52:15;;;;;;;42.80;25.08;;;;;;;35.72;56.50;98388.69;4887475;29;20049;-67
2022/08/30 07:54:50;;;;;;;40.10;24.55;;;;;;;35.81;57.10;98386.31;4889229;29;20056;-68
2022/08/30 07:57:45;;;;;;;41.63;24.42;;;;;;;35.77;58.40;98382.72;4888285;29;20108;-68
2022/08/30 08:00:21;;;;;;;39.10;22.30;;;;;;;35.88;61.56;98380.78;4858115;29;20125;-68
2022/08/30 08:03:16;;;;;;;32.92;21.70;;;;;;;35.77;53.33;98374.34;4889325;29;20053;-67
2022/08/30 08:05:52;;;;;;;40.03;21.80;;;;;;;35.91;55.91;98363.25;4889118;29;20045;-68
2022/08/30 08:08:44;;;;;;;33.05;21.63;;;;;;;36.03;59.46;98364.88;4874148;29;20188;-68
2022/08/30 08:11:34;;;;;;;36.83;23.58;;;;;;;36.12;61.15;98351.38;4873875;29;20044;-67
2022/08/30 08:14:23;;;;;;;28.10;18.92;;;;;;;35.95;57.15;98347.31;4896366;29;20059;-67
2022/08/30 08:17:06;;;;;;;34.07;18.57;;;;;;;36.06;56.23;98353.75;4907165;29;20621;-68
2022/08/30 08:20:01;;;;;;;26.63;15.90;;;;;;;36.18;55.18;98349.00;4871218;29;20380;-68
2022/08/30 08:22:36;;;;;;;29.75;14.77;;;;;;;35.88;58.79;98338.91;4886632;29;20053;-68
2022/08/30 08:25:25;;;;;;;29.45;15.07;;;;;;;35.90;54.84;98339.31;4889230;29;20056;-68
2022/08/30 08:28:15;;;;;;;33.35;15.88;;;;;;;35.51;52.95;98331.53;4892763;29;20137;-67
2022/08/30 08:31:15;;;;;;;19.98;13.77;;;;;;;35.79;56.77;98322.53;4893457;29;20100;-68
2022/08/30 08:34:14;;;;;;;24.83;14.80;;;;;;;35.99;57.23;98324.97;4893135;29;20055;-68
2022/08/30 08:37:03;;;;;;;17.85;13.32;;;;;;;35.84;55.13;98326.91;4893975;29;20749;-67
2022/08/30 08:39:52;;;;;;;26.92;13.57;;;;;;;35.73;55.61;98318.50;4892527;29;20048;-68
2022/08/30 08:43:11;;;;;;;28.80;14.65;;;;;;;35.60;55.41;98315.22;4892805;29;20056;-68
2022/08/30 08:46:09;;;;;;;21.05;13.30;;;;;;;35.67;55.27;98301.31;4877081;29;20052;-68
2022/08/30 08:48:56;;;;;;;27.90;15.55;;;;;;;35.36;60.26;98305.53;4892547;29;20512;-67
2022/08/30 08:55:07;;;;;;;;;;;;;;;35.30;53.38;98284.78;4893718;29;20055;-68
2022/08/30 08:57:56;;;;;;;21.15;13.00;;;;;;;35.45;53.58;98280.88;4892451;29;19938;-67
2022/08/30 09:00:45;;;;;;;21.92;12.27;;;;;;;35.59;53.83;98280.13;4877892;29;20467;-67
2022/08/30 09:03:28;;;;;;;22.40;12.98;;;;;;;35.71;55.58;98275.41;4892904;29;20053;-68
2022/08/30 09:06:50;;;;;;;19.77;13.07;;;;;;;35.70;56.83;98280.22;4897735;29;20867;-68
2022/08/30 09:09:36;;;;;;;24.33;13.88;;;;;;;35.60;59.88;98269.75;4897411;29;20397;-67
2022/08/30 09:12:26;;;;;;;22.88;13.73;;;;;;;35.61;54.68;98271.38;4892828;29;20473;-67
2022/08/30 09:15:21;;;;;;;32.28;14.80;;;;;;;35.62;55.11;98268.19;4892969;29;20056;-67
2022/08/30 09:18:13;;;;;;;26.90;15.27;;;;;;;35.55;54.58;98273.75;4894497;29;20062;-67
2022/08/30 09:21:06;;;;;;;25.38;15.00;;;;;;;35.59;53.75;98271.75;4877847;29;20302;-67
2022/08/30 09:24:10;;;;;;;30.95;14.70;;;;;;;35.26;58.18;98262.44;4857429;29;20079;-68
2022/08/30 09:27:29;;;;;;;26.52;14.63;;;;;;;35.01;62.02;98267.84;4897219;29;20499;-69
2022/08/30 09:30:30;;;;;;;30.50;12.90;;;;;;;34.83;60.01;98264.13;4901326;29;20075;-69
2022/08/30 09:33:26;;;;;;;23.10;12.73;;;;;;;34.63;61.43;98258.00;4899835;29;20102;-68
2022/08/30 09:36:25;;;;;;;19.92;12.80;;;;;;;34.65;58.63;98250.84;4900503;29;20052;-68
2022/08/30 09:39:21;;;;;;;35.22;15.48;;;;;;;34.11;59.28;98246.75;4899618;29;20749;-68
2022/08/30 09:42:33;;;;;;;31.42;18.30;;;;;;;34.38;59.28;98241.88;4904211;29;20055;-68
2022/08/30 09:45:36;;;;;;;26.23;18.70;;;;;;;33.98;60.49;98251.81;4892688;29;20059;-68
2022/08/30 09:48:39;;;;;;;28.88;17.23;;;;;;;33.44;60.75;98253.13;4886139;29;20457;-67
2022/08/30 09:51:28;;;;;;;27.70;18.13;;;;;;;33.47;62.26;98246.81;4867476;29;20053;-69
2022/08/30 09:54:43;;;;;;;25.15;16.42;;;;;;;33.65;62.07;98249.81;4896448;29;20062;-68
2022/08/30 09:57:56;;;;;;;27.95;16.25;;;;;;;33.39;60.95;98242.34;4887407;29;20048;-68
2022/08/30 10:01:43;;;;;;;28.08;15.40;;;;;;;33.21;60.52;98236.53;4894570;29;20131;-67
2022/08/30 10:04:39;;;;;;;28.88;15.02;;;;;;;33.28;62.28;98225.50;4810370;29;20732;-68
2022/08/30 10:07:52;;;;;;;32.25;15.43;;;;;;;33.28;60.72;98215.19;4894235;29;20386;-67
2022/08/30 10:10:55;;;;;;;29.73;17.63;;;;;;;33.07;61.97;98204.53;4891584;29;20056;-68
2022/08/30 10:14:17;;;;;;;30.95;17.63;;;;;;;32.99;64.66;98202.06;4898558;29;20045;-67
2022/08/30 10:17:08;;;;;;;28.92;17.05;;;;;;;33.06;66.04;98207.72;4892766;29;20151;-69
2022/08/30 10:20:24;;;;;;;25.50;16.08;;;;;;;33.11;64.91;98199.06;4905002;29;20079;-69
2022/08/30 10:23:25;;;;;;;31.48;17.13;;;;;;;33.12;64.96;98190.34;4908836;29;20048;-70
2022/08/30 10:26:36;;;;;;;23.85;16.48;;;;;;;33.04;65.60;98185.84;4910158;29;20087;-69
2022/08/30 10:29:38;;;;;;;25.73;16.10;;;;;;;33.18;64.11;98176.91;4909676;29;20048;-69
2022/08/30 10:33:03;;;;;;;23.30;16.20;;;;;;;33.23;63.13;98178.56;4906763;29;20103;-69
2022/08/30 10:35:56;;;;;;;21.60;15.15;;;;;;;33.37;66.18;98175.97;4893292;29;20052;-68
2022/08/30 10:38:58;;;;;;;28.27;17.35;;;;;;;33.17;64.06;98172.53;4892581;29;20059;-68
2022/08/30 10:41:57;;;;;;;28.02;15.98;;;;;;;33.28;64.08;98176.25;4891528;29;20401;-68
2022/08/30 10:44:55;;;;;;;23.83;15.35;;;;;;;33.45;63.58;98179.63;4897895;29;20044;-68
2022/08/30 10:47:59;;;;;;;26.73;16.10;;;;;;;33.51;62.65;98180.88;4880941;29;20115;-67
2022/08/30 10:50:57;;;;;;;18.15;13.80;;;;;;;33.87;62.18;98179.31;4891552;29;20066;-70
2022/08/30 10:54:00;;;;;;;16.60;13.32;;;;;;;34.07;60.25;98165.16;4903651;29;20472;-67
2022/08/30 10:56:58;;;;;;;29.17;14.73;;;;;;;33.97;60.43;98163.88;4904163;29;20052;-68
2022/08/30 10:59:59;;;;;;;19.80;13.40;;;;;;;33.94;59.93;98156.31;4891023;29;20063;-69
2022/08/30 11:03:12;;;;;;;21.08;13.07;;;;;;;34.04;60.53;98163.94;4890782;29;20129;-68
2022/08/30 11:06:15;;;;;;;18.27;11.93;;;;;;;33.90;59.87;98149.91;4890497;29;20242;-69
2022/08/30 11:09:03;;;;;;;15.93;12.20;;;;;;;34.23;58.54;98162.16;4891338;29;20925;-69
2022/08/30 11:12:20;;;;;;;13.48;11.20;;;;;;;34.20;58.94;98158.13;4895764;29;20311;-68
2022/08/30 11:15:25;;;;;;;15.95;11.13;;;;;;;34.14;59.28;98156.88;4898905;29;20133;-69
2022/08/30 11:18:15;;;;;;;16.42;10.63;;;;;;;33.94;59.73;98165.47;4903059;29;20048;-67
2022/08/30 11:21:21;;;;;;;14.77;10.90;;;;;;;34.00;58.69;98159.53;4896449;29;20049;-67
2022/08/30 11:24:22;;;;;;;15.05;9.85;;;;;;;34.07;59.48;98157.63;4897518;29;20155;-69
2022/08/30 11:27:06;;;;;;;18.05;10.30;;;;;;;33.96;60.79;98155.94;4897484;29;20071;-70
2022/08/30 11:29:55;;;;;;;18.65;10.05;;;;;;;33.88;60.50;98150.28;4900721;29;20055;-68
2022/08/30 11:33:30;;;;;;;14.88;10.50;;;;;;;34.01;61.33;98155.56;4896276;29;20048;-68
2022/08/30 11:36:31;;;;;;;18.77;13.70;;;;;;;34.05;61.27;98151.66;4895369;29;20488;-68
2022/08/30 11:39:55;;;;;;;17.63;11.65;;;;;;;34.02;61.33;98146.03;4899769;29;20083;-68
2022/08/30 11:42:47;;;;;;;21.98;11.93;;;;;;;34.08;60.89;98141.72;4898560;29;20116;-68
2022/08/30 11:45:36;;;;;;;20.10;12.50;;;;;;;34.07;60.72;98143.69;4892627;29;20079;-68
2022/08/30 11:48:47;;;;;;;17.38;12.45;;;;;;;34.03;60.64;98128.94;4898834;29;20789;-69
2022/08/30 11:52:08;;;;;;;20.05;12.40;;;;;;;34.00;59.68;98126.94;4898926;29;20053;-68
2022/08/30 11:55:34;;;;;;;24.98;13.70;;;;;;;34.16;60.15;98123.91;4896730;29;20056;-68
2022/08/30 11:58:51;;;;;;;24.10;13.52;;;;;;;34.17;60.41;98119.16;4874737;29;20342;-68
2022/08/30 12:01:47;;;;;;;20.95;14.65;;;;;;;34.00;62.82;98115.78;4893099;29;20052;-69
2022/08/30 12:04:44;;;;;;;33.05;15.75;;;;;;;34.05;61.97;98111.84;4896853;29;20060;-68
2022/08/30 12:08:03;;;;;;;26.65;15.60;;;;;;;34.10;61.66;98112.28;4899234;29;20138;-69
2022/08/30 12:11:07;;;;;;;25.92;16.38;;;;;;;34.11;62.47;98115.88;4894821;29;20072;-68
2022/08/30 12:13:59;;;;;;;30.92;17.75;;;;;;;34.08;61.98;98097.94;4907986;29;20128;-68
2022/08/30 12:19:56;;;;;;;24.27;17.92;;;;;;;33.84;62.21;98099.38;4901117;29;20381;-68
2022/08/30 12:22:39;;;;;;;30.50;18.95;;;;;;;33.87;63.25;98100.56;4913347;29;20159;-68
2022/08/30 12:25:36;;;;;;;32.28;19.40;;;;;;;33.84;63.24;98095.75;4912822;29;20056;-68
2022/08/30 12:28:24;;;;;;;32.00;18.85;;;;;;;33.90;64.12;98099.81;4912642;29;20145;-68
2022/08/30 12:31:20;;;;;;;33.00;20.30;;;;;;;33.86;64.38;98101.75;4909785;29;20059;-67
2022/08/30 12:34:03;;;;;;;38.22;20.00;;;;;;;33.82;64.06;98098.13;4910147;29;20510;-67
2022/08/30 12:37:10;;;;;;;31.02;20.25;;;;;;;33.85;64.52;98100.16;4893666;29;20045;-68
2022/08/30 12:40:05;;;;;;;38.22;19.98;;;;;;;33.82;64.50;98100.91;4898933;29;20068;-67
2022/08/30 12:42:59;;;;;;;36.28;20.52;;;;;;;33.73;63.91;98102.03;4904652;29;20641;-68
2022/08/30 12:45:49;;;;;;;31.13;20.05;;;;;;;33.69;64.23;98106.78;4907227;29;20057;-67
2022/08/30 12:48:33;;;;;;;36.72;22.70;;;;;;;33.69;64.63;98095.66;4894590;29;20057;-67
2022/08/30 12:51:40;;;;;;;35.15;25.23;;;;;;;33.71;63.92;98103.63;4889002;29;20063;-68
2022/08/30 12:54:29;;;;;;;37.42;25.70;;;;;;;33.66;63.98;98107.53;4892310;29;20052;-67
2022/08/30 12:57:50;;;;;;;41.28;28.05;;;;;;;33.63;64.62;98107.47;4903492;29;20558;-68
2022/08/30 13:00:51;;;;;;;38.20;25.88;;;;;;;33.60;65.38;98103.47;4880633;29;20056;-68
2022/08/30 13:03:46;;;;;;;41.25;26.08;;;;;;;33.54;65.46;98099.44;4889359;29;20056;-69
2022/08/30 13:06:49;;;;;;;43.10;28.55;;;;;;;33.41;66.02;98112.03;4890275;29;20061;-69
2022/08/30 13:09:47;;;;;;;42.77;26.57;;;;;;;33.18;66.49;98112.97;4894199;29;20157;-69
2022/08/30 13:12:42;;;;;;;52.83;27.80;;;;;;;33.14;66.72;98110.16;4874329;29;20581;-68
2022/08/30 13:15:34;;;;;;;45.88;27.45;;;;;;;33.08;67.33;98110.84;4872289;29;20049;-65
2022/08/30 13:18:42;;;;;;;50.72;29.70;;;;;;;33.08;68.91;98099.72;4871141;29;20045;-70
2022/08/30 13:21:32;;;;;;;43.88;29.70;;;;;;;33.14;68.52;98103.78;4893134;29;20045;-68